Time;durP1;ratioP1;P1;durP2;ratioP2;P2;SDS_P1;SDS_P2;PMS_P1;PMS_P2;Temp;Humidity;BMP_temperature;BMP_pressure;BME280_temperature;BME280_humidity;BME280_pressure;Samples;Min_cycle;Max_cycle;Signal;HPM_P1;HPM_P2
2022/04/29 00:00:54;;;;;;;2.30;2.20;;;20.40;54.50;;;;;;4974931;28;20058;-16
2022/04/29 00:03:21;;;;;;;2.53;2.42;;;20.30;54.50;;;;;;4959177;28;20229;-17
2022/04/29 00:05:46;;;;;;;2.28;2.10;;;20.30;54.70;;;;;;4959882;28;20647;-18
2022/04/29 00:08:12;;;;;;;2.30;2.20;;;20.30;54.50;;;;;;4959562;28;20384;-16
2022/04/29 00:10:38;;;;;;;2.38;2.28;;;20.30;54.70;;;;;;4959849;28;20049;-16
2022/04/29 00:13:05;;;;;;;2.63;2.42;;;20.30;54.60;;;;;;4959255;28;20532;-16
2022/04/29 00:15:30;;;;;;;1.88;1.77;;;20.30;54.70;;;;;;4959640;28;20039;-16
2022/04/29 00:17:56;;;;;;;2.40;2.30;;;20.30;54.70;;;;;;4976079;28;20503;-16
2022/04/29 00:20:22;;;;;;;2.55;2.45;;;20.30;54.70;;;;;;4978169;28;20106;-16
2022/04/29 00:22:48;;;;;;;2.40;2.30;;;20.30;54.90;;;;;;4974419;28;20089;-16
2022/04/29 00:25:14;;;;;;;2.40;2.30;;;20.30;54.70;;;;;;4958942;28;20405;-16
2022/04/29 00:27:42;;;;;;;2.30;2.20;;;20.30;54.70;;;;;;4959542;28;20416;-16
2022/04/29 00:30:10;;;;;;;3.00;2.20;;;20.30;54.70;;;;;;4959196;28;20043;-16
2022/04/29 00:32:37;;;;;;;2.42;2.22;;;20.20;54.70;;;;;;4959571;28;20102;-16
2022/04/29 00:35:03;;;;;;;2.35;2.08;;;20.20;54.90;;;;;;4964026;28;20038;-16
2022/04/29 00:37:30;;;;;;;1.95;1.85;;;20.20;54.90;;;;;;4978758;28;20070;-15
2022/04/29 00:39:55;;;;;;;2.00;1.90;;;20.20;54.90;;;;;;4977860;28;20041;-16
2022/04/29 00:42:21;;;;;;;2.10;2.00;;;20.20;54.80;;;;;;4958678;28;20050;-16
2022/04/29 00:44:47;;;;;;;2.60;2.40;;;20.20;54.60;;;;;;4959151;28;20047;-17
2022/04/29 00:47:14;;;;;;;2.28;2.17;;;20.20;55.00;;;;;;4958938;28;20070;-16
2022/04/29 00:49:40;;;;;;;2.10;2.00;;;20.20;55.10;;;;;;4973889;28;20055;-16
2022/04/29 00:52:07;;;;;;;1.70;1.60;;;20.20;55.00;;;;;;4958429;28;20039;-16
2022/04/29 00:54:35;;;;;;;2.20;2.10;;;20.10;55.20;;;;;;4957755;28;20083;-17
2022/04/29 00:57:00;;;;;;;2.10;2.00;;;20.10;55.20;;;;;;4962155;28;20046;-16
2022/04/29 00:59:59;;;;;;;1.90;1.80;;;20.10;55.10;;;;;;4977593;28;20049;-16
2022/04/29 01:02:25;;;;;;;2.38;2.28;;;20.10;54.90;;;;;;4969868;28;20061;-16
2022/04/29 01:05:07;;;;;;;2.03;1.92;;;20.20;54.80;;;;;;4969068;28;20051;-16
2022/04/29 01:07:34;;;;;;;2.58;2.38;;;20.20;54.80;;;;;;4958122;28;20055;-16
2022/04/29 01:09:59;;;;;;;2.15;2.05;;;20.20;55.00;;;;;;4959147;28;20047;-16
2022/04/29 01:12:26;;;;;;;2.08;1.98;;;20.10;54.90;;;;;;4958147;28;20113;-16
2022/04/29 01:14:56;;;;;;;2.17;2.08;;;20.10;54.90;;;;;;4959027;28;20054;-16
2022/04/29 01:17:22;;;;;;;1.88;1.77;;;20.20;54.90;;;;;;4972473;28;20062;-16
2022/04/29 01:19:48;;;;;;;2.47;2.00;;;20.20;55.00;;;;;;4958511;28;20054;-16
2022/04/29 01:22:14;;;;;;;1.98;1.88;;;20.10;55.10;;;;;;4957849;28;20078;-16
2022/04/29 01:24:39;;;;;;;2.22;1.88;;;20.10;54.90;;;;;;4958837;28;20051;-16
2022/04/29 01:27:10;;;;;;;2.15;1.95;;;20.20;55.10;;;;;;4958460;28;20047;-16
2022/04/29 01:29:40;;;;;;;1.80;1.70;;;20.10;55.00;;;;;;4957933;28;20659;-16
2022/04/29 01:32:08;;;;;;;1.92;1.83;;;20.10;55.10;;;;;;4959705;28;20408;-18
2022/04/29 01:34:33;;;;;;;1.90;1.80;;;20.00;55.20;;;;;;4975312;28;20129;-16
2022/04/29 01:36:59;;;;;;;1.90;1.80;;;20.00;55.10;;;;;;4970527;28;20082;-17
2022/04/29 01:39:24;;;;;;;2.17;2.08;;;20.10;55.30;;;;;;4958516;28;20050;-16
2022/04/29 01:41:51;;;;;;;1.90;1.80;;;20.10;55.00;;;;;;4975425;28;20170;-16
2022/04/29 01:44:17;;;;;;;2.00;1.90;;;20.10;55.10;;;;;;4957590;28;20054;-16
2022/04/29 01:46:43;;;;;;;2.03;1.90;;;20.10;55.40;;;;;;4972678;28;20047;-16
2022/04/29 01:49:08;;;;;;;2.22;2.13;;;20.10;55.10;;;;;;4957444;28;20047;-17
2022/04/29 01:51:34;;;;;;;1.90;1.80;;;20.00;55.30;;;;;;4958174;28;20108;-16
2022/04/29 01:53:59;;;;;;;2.20;2.00;;;20.00;55.20;;;;;;4957847;28;20047;-16
2022/04/29 01:56:34;;;;;;;1.92;1.83;;;20.00;55.60;;;;;;4957204;28;20114;-15
2022/04/29 01:59:00;;;;;;;2.00;1.90;;;20.00;55.60;;;;;;4957819;28;20050;-16
2022/04/29 02:01:27;;;;;;;3.50;2.22;;;20.00;55.30;;;;;;4956861;28;20531;-17
2022/04/29 02:03:54;;;;;;;2.10;1.90;;;20.00;55.20;;;;;;4958040;28;20062;-16
2022/04/29 02:06:19;;;;;;;2.28;2.08;;;20.00;55.50;;;;;;4957015;28;20047;-16
2022/04/29 02:08:45;;;;;;;2.05;1.95;;;20.00;55.20;;;;;;4958050;28;20043;-16
2022/04/29 02:11:10;;;;;;;1.90;1.80;;;20.10;55.30;;;;;;4957111;28;20047;-16
2022/04/29 02:13:37;;;;;;;2.40;2.20;;;20.10;55.20;;;;;;4957383;28;20047;-16
2022/04/29 02:16:03;;;;;;;2.30;2.10;;;20.00;55.20;;;;;;4957456;28;20043;-16
2022/04/29 02:18:28;;;;;;;1.80;1.70;;;20.10;55.30;;;;;;4956738;28;20047;-16
2022/04/29 02:20:54;;;;;;;2.33;2.10;;;20.00;55.10;;;;;;4957420;28;20043;-16
2022/04/29 02:23:20;;;;;;;1.92;1.83;;;20.00;55.20;;;;;;4956806;28;20039;-16
2022/04/29 02:25:45;;;;;;;2.10;1.95;;;20.00;55.20;;;;;;4957566;28;20050;-16
2022/04/29 02:28:12;;;;;;;2.33;2.00;;;20.00;55.30;;;;;;4956934;28;20039;-16
2022/04/29 02:30:38;;;;;;;1.98;1.88;;;20.00;55.20;;;;;;4957562;28;20047;-16
2022/04/29 02:33:03;;;;;;;1.95;1.85;;;20.10;55.20;;;;;;4957534;28;20039;-16
2022/04/29 02:35:29;;;;;;;2.03;1.92;;;20.10;55.20;;;;;;4965589;28;20493;-16
2022/04/29 02:37:54;;;;;;;1.73;1.63;;;20.00;55.20;;;;;;4976502;28;20035;-16
2022/04/29 02:40:20;;;;;;;2.25;2.15;;;20.00;55.20;;;;;;4971733;28;20043;-16
2022/04/29 02:42:46;;;;;;;2.03;1.92;;;20.00;55.20;;;;;;4976667;28;20122;-15
2022/04/29 02:45:11;;;;;;;2.13;1.90;;;20.00;55.40;;;;;;4978860;28;20043;-16
2022/04/29 02:47:37;;;;;;;1.80;1.70;;;20.00;55.20;;;;;;4982724;28;20038;-16
2022/04/29 02:50:03;;;;;;;2.13;2.00;;;20.00;55.40;;;;;;4983041;28;20039;-16
2022/04/29 02:52:28;;;;;;;2.95;2.00;;;20.00;55.20;;;;;;4982302;28;20042;-16
2022/04/29 02:54:54;;;;;;;2.17;2.08;;;19.90;55.50;;;;;;4969209;28;20047;-16
2022/04/29 02:57:20;;;;;;;1.92;1.83;;;19.90;55.40;;;;;;4980226;28;20046;-16
2022/04/29 02:59:45;;;;;;;2.55;2.05;;;19.90;55.30;;;;;;4982746;28;20165;-16
2022/04/29 03:02:11;;;;;;;1.90;1.80;;;19.90;55.30;;;;;;4982037;28;20047;-17
2022/04/29 03:04:36;;;;;;;2.00;1.90;;;19.90;55.40;;;;;;4967246;28;20051;-16
2022/04/29 03:07:02;;;;;;;2.08;1.98;;;19.90;55.50;;;;;;4963452;28;20175;-16
2022/04/29 03:09:28;;;;;;;1.85;1.75;;;19.90;55.30;;;;;;4962966;28;20043;-16
2022/04/29 03:11:53;;;;;;;2.30;1.80;;;19.90;55.40;;;;;;4963865;28;20043;-16
2022/04/29 03:14:19;;;;;;;2.40;2.20;;;19.90;55.50;;;;;;4962919;28;20044;-16
2022/04/29 03:16:45;;;;;;;2.40;2.30;;;19.90;55.30;;;;;;4961928;28;20043;-17
2022/04/29 03:19:10;;;;;;;3.60;2.17;;;19.90;55.40;;;;;;4963364;28;20047;-16
2022/04/29 03:21:36;;;;;;;1.80;1.70;;;19.90;55.50;;;;;;4962954;28;20054;-16
2022/04/29 03:24:03;;;;;;;1.65;1.55;;;19.80;55.70;;;;;;4963309;28;20051;-16
2022/04/29 03:26:29;;;;;;;2.00;1.90;;;19.90;55.40;;;;;;4961767;28;20047;-16
2022/04/29 03:28:55;;;;;;;1.90;1.80;;;19.90;55.40;;;;;;4963375;28;20057;-16
2022/04/29 03:31:21;;;;;;;1.90;1.80;;;19.90;55.40;;;;;;4962595;28;20705;-16
2022/04/29 03:33:46;;;;;;;3.50;2.33;;;19.90;55.60;;;;;;4963475;28;20512;-16
2022/04/29 03:36:14;;;;;;;1.90;1.80;;;19.80;55.80;;;;;;4972071;28;20508;-18
2022/04/29 03:38:40;;;;;;;2.08;1.90;;;19.80;55.50;;;;;;4961751;28;20063;-16
2022/04/29 03:41:06;;;;;;;1.80;1.70;;;19.80;55.60;;;;;;4970357;28;20086;-16
2022/04/29 03:43:32;;;;;;;1.73;1.63;;;19.80;55.50;;;;;;4962554;28;21036;-16
2022/04/29 03:45:58;;;;;;;2.30;2.08;;;19.80;55.70;;;;;;4963045;28;20139;-16
2022/04/29 03:48:23;;;;;;;1.67;1.58;;;19.80;55.90;;;;;;4961053;28;20500;-17
2022/04/29 03:50:49;;;;;;;2.08;1.98;;;19.80;55.60;;;;;;4963121;28;20047;-16
2022/04/29 03:53:15;;;;;;;1.60;1.50;;;19.80;55.90;;;;;;4962716;28;20035;-17
2022/04/29 03:55:40;;;;;;;1.60;1.50;;;19.80;56.20;;;;;;4960824;28;20198;-16
2022/04/29 03:58:06;;;;;;;2.38;1.92;;;19.80;56.00;;;;;;4959280;28;20043;-16
2022/04/29 04:00:32;;;;;;;1.88;1.77;;;19.80;55.90;;;;;;4959830;28;20050;-16
2022/04/29 04:02:59;;;;;;;1.80;1.70;;;19.70;56.20;;;;;;4959644;28;20094;-16
2022/04/29 04:05:25;;;;;;;1.80;1.70;;;19.80;55.90;;;;;;4959392;28;20067;-16
2022/04/29 04:07:50;;;;;;;2.38;1.80;;;19.80;55.80;;;;;;4976832;28;20054;-17
2022/04/29 04:10:16;;;;;;;2.17;2.00;;;19.80;55.70;;;;;;4978477;28;20042;-17
2022/04/29 04:12:49;;;;;;;1.50;1.50;;;19.70;55.70;;;;;;4974146;28;20456;-16
2022/04/29 04:15:15;;;;;;;1.92;1.80;;;19.70;55.70;;;;;;4959845;28;20043;-16
2022/04/29 04:17:40;;;;;;;2.65;1.80;;;19.70;55.90;;;;;;4958091;28;20102;-16
2022/04/29 04:20:07;;;;;;;1.70;1.60;;;19.70;55.70;;;;;;4959704;28;20047;-19
2022/04/29 04:22:36;;;;;;;2.25;2.05;;;19.70;55.70;;;;;;4958875;28;20051;-16
2022/04/29 04:25:09;;;;;;;2.40;2.20;;;19.70;55.60;;;;;;4959798;28;20102;-16
2022/04/29 04:27:34;;;;;;;1.90;1.77;;;19.70;55.70;;;;;;4958996;28;20134;-16
2022/04/29 04:30:00;;;;;;;1.80;1.70;;;19.70;55.70;;;;;;4959481;28;20134;-16
2022/04/29 04:32:26;;;;;;;1.50;1.40;;;19.70;55.80;;;;;;4957405;28;20122;-16
2022/04/29 04:34:57;;;;;;;1.80;1.70;;;19.70;55.60;;;;;;4963171;28;20130;-16
2022/04/29 04:37:24;;;;;;;1.65;1.55;;;19.70;55.70;;;;;;4969080;28;20048;-16
2022/04/29 04:39:49;;;;;;;1.90;1.80;;;19.70;55.60;;;;;;4963741;28;20400;-16
2022/04/29 04:42:15;;;;;;;2.72;1.75;;;19.70;55.50;;;;;;4978617;28;20069;-15
2022/04/29 04:44:41;;;;;;;1.60;1.50;;;19.70;55.90;;;;;;4974581;28;20121;-16
2022/04/29 04:47:07;;;;;;;1.90;1.80;;;19.70;55.90;;;;;;4617466;28;10000062;-16
2022/04/29 04:49:33;;;;;;;1.60;1.50;;;19.70;55.80;;;;;;4969727;28;20058;-16
2022/04/29 04:51:59;;;;;;;2.58;1.88;;;19.80;55.90;;;;;;4962628;28;20055;-16
2022/04/29 04:54:24;;;;;;;3.10;1.70;;;19.80;56.30;;;;;;4973616;28;20042;-16
2022/04/29 04:56:50;;;;;;;1.15;1.15;;;19.70;56.20;;;;;;4974742;28;20058;-16
2022/04/29 04:59:15;;;;;;;2.53;1.42;;;19.80;56.20;;;;;;4979806;28;20423;-16
2022/04/29 05:01:41;;;;;;;2.20;1.73;;;19.80;56.30;;;;;;4974913;28;20214;-16
2022/04/29 05:04:07;;;;;;;2.38;2.17;;;19.80;56.20;;;;;;4965938;28;20074;-16
2022/04/29 05:06:32;;;;;;;2.60;2.40;;;19.80;56.10;;;;;;4971230;28;20058;-16
2022/04/29 05:08:58;;;;;;;5.47;2.83;;;19.80;55.90;;;;;;4966197;28;20058;-16
2022/04/29 05:11:23;;;;;;;2.97;2.70;;;19.70;56.00;;;;;;4972746;28;20043;-17
2022/04/29 05:13:49;;;;;;;3.45;2.70;;;19.70;55.90;;;;;;4968844;28;20105;-16
2022/04/29 05:16:15;;;;;;;3.92;2.80;;;19.70;55.90;;;;;;4961545;28;20038;-16
2022/04/29 05:18:40;;;;;;;7.05;3.80;;;19.70;55.90;;;;;;4972468;28;20626;-15
2022/04/29 05:21:06;;;;;;;4.75;4.20;;;19.60;55.80;;;;;;4969145;28;20114;-16
2022/04/29 05:23:31;;;;;;;5.53;3.67;;;19.60;55.80;;;;;;4968975;28;20050;-15
2022/04/29 05:25:57;;;;;;;4.38;3.97;;;19.60;55.70;;;;;;4972933;28;20069;-16
2022/04/29 05:28:23;;;;;;;6.00;3.95;;;19.60;55.60;;;;;;4970679;28;20047;-16
2022/04/29 05:30:48;;;;;;;5.00;4.00;;;19.50;55.60;;;;;;4968988;28;20047;-16
2022/04/29 05:33:14;;;;;;;6.80;4.00;;;19.60;55.60;;;;;;4969156;28;20066;-16
2022/04/29 05:35:40;;;;;;;6.68;4.05;;;19.50;55.40;;;;;;4971733;28;20047;-16
2022/04/29 05:38:05;;;;;;;4.57;3.78;;;19.50;55.40;;;;;;4957990;28;20511;-16
2022/04/29 05:43:15;;;;;;;5.10;4.35;;;19.50;55.40;;;;;;4972497;28;20578;-16
2022/04/29 05:45:41;;;;;;;4.60;3.78;;;19.50;55.40;;;;;;4961966;28;20063;-16
2022/04/29 05:48:07;;;;;;;6.32;4.57;;;19.50;55.40;;;;;;4990839;28;20102;-16
2022/04/29 05:50:32;;;;;;;5.70;4.72;;;19.50;55.20;;;;;;4966257;28;20043;-16
2022/04/29 05:52:58;;;;;;;8.43;4.28;;;19.50;55.40;;;;;;4974725;28;20049;-16
2022/04/29 05:55:24;;;;;;;5.30;3.95;;;19.50;55.30;;;;;;4970669;28;20050;-17
2022/04/29 05:57:49;;;;;;;7.55;4.10;;;19.40;55.20;;;;;;4973167;28;20100;-16
2022/04/29 06:00:15;;;;;;;5.13;4.13;;;19.50;55.30;;;;;;4969160;28;20097;-16
2022/04/29 06:02:42;;;;;;;6.55;4.40;;;19.50;55.20;;;;;;4967482;28;20054;-16
2022/04/29 06:05:08;;;;;;;5.45;3.85;;;19.50;55.20;;;;;;4972467;28;20049;-16
2022/04/29 06:07:34;;;;;;;5.10;3.90;;;19.50;55.30;;;;;;4970030;28;20055;-16
2022/04/29 06:09:59;;;;;;;6.45;4.25;;;19.50;55.20;;;;;;4972392;28;20043;-16
2022/04/29 06:12:26;;;;;;;6.97;4.72;;;19.50;55.20;;;;;;4962740;28;20070;-16
2022/04/29 06:14:51;;;;;;;4.70;4.03;;;19.50;55.20;;;;;;4973300;28;20077;-16
2022/04/29 06:17:17;;;;;;;5.32;4.55;;;19.40;55.20;;;;;;4972930;28;20064;-16
2022/04/29 06:19:43;;;;;;;6.35;4.57;;;19.40;55.20;;;;;;4971300;28;20098;-16
2022/04/29 06:22:08;;;;;;;6.43;4.05;;;19.40;55.20;;;;;;4960267;28;20045;-16
2022/04/29 06:24:34;;;;;;;5.68;4.28;;;19.40;55.40;;;;;;4959826;28;20071;-16
2022/04/29 06:27:01;;;;;;;4.60;4.10;;;19.50;55.30;;;;;;4971164;28;20129;-17
2022/04/29 06:29:26;;;;;;;4.28;3.88;;;19.50;55.00;;;;;;4970644;28;20078;-17
2022/04/29 06:31:52;;;;;;;4.32;3.92;;;19.60;55.00;;;;;;4991133;28;20051;-17
2022/04/29 06:34:18;;;;;;;4.43;4.03;;;19.70;54.70;;;;;;4972620;28;20058;-16
2022/04/29 06:36:44;;;;;;;4.55;3.88;;;19.70;54.60;;;;;;4969911;28;20043;-17
2022/04/29 06:39:09;;;;;;;4.93;3.80;;;19.80;54.50;;;;;;4972361;28;20051;-17
2022/04/29 06:41:36;;;;;;;5.07;3.67;;;19.80;54.60;;;;;;4970949;28;20129;-16
2022/04/29 06:44:02;;;;;;;4.05;3.72;;;19.70;54.60;;;;;;4965991;28;20046;-16
2022/04/29 06:46:28;;;;;;;3.50;2.88;;;19.70;54.70;;;;;;4971955;28;20049;-16
2022/04/29 06:48:55;;;;;;;4.57;3.42;;;19.70;54.80;;;;;;4974791;28;20046;-16
2022/04/29 06:51:25;;;;;;;4.32;3.30;;;19.70;54.90;;;;;;4974255;28;20046;-16
2022/04/29 06:53:51;;;;;;;2.85;2.50;;;19.70;54.90;;;;;;4963234;28;20109;-16
2022/04/29 06:56:16;;;;;;;3.55;2.78;;;19.80;54.80;;;;;;4974731;28;20054;-17
2022/04/29 06:58:42;;;;;;;3.67;2.70;;;19.70;54.90;;;;;;4972230;28;20039;-17
2022/04/29 07:01:07;;;;;;;4.18;2.80;;;19.80;54.90;;;;;;4974572;28;20042;-16
2022/04/29 07:03:33;;;;;;;4.03;2.90;;;19.70;55.00;;;;;;4975359;28;20038;-17
2022/04/29 07:06:01;;;;;;;3.70;2.70;;;19.80;55.00;;;;;;4975964;28;20035;-16
2022/04/29 07:08:28;;;;;;;3.50;2.58;;;19.70;55.20;;;;;;4959302;28;20524;-17
2022/04/29 07:10:55;;;;;;;2.60;2.40;;;19.70;55.20;;;;;;4963690;28;20042;-16
2022/04/29 07:13:20;;;;;;;2.83;2.40;;;19.80;55.10;;;;;;4975003;28;20051;-16
2022/04/29 07:15:48;;;;;;;3.45;2.60;;;19.80;55.10;;;;;;4970156;28;20115;-16
2022/04/29 07:18:14;;;;;;;2.90;2.45;;;19.80;55.10;;;;;;4964149;28;20133;-16
2022/04/29 07:20:39;;;;;;;3.38;2.22;;;19.90;54.90;;;;;;4973988;28;20074;-16
2022/04/29 07:23:05;;;;;;;2.72;2.40;;;19.90;54.90;;;;;;4975020;28;20515;-16
2022/04/29 07:25:31;;;;;;;2.45;2.25;;;19.90;55.00;;;;;;4975355;28;20108;-16
2022/04/29 07:27:56;;;;;;;2.65;2.45;;;19.80;55.20;;;;;;4976091;28;20613;-16
2022/04/29 07:30:22;;;;;;;2.58;2.38;;;19.80;55.20;;;;;;4976022;28;20039;-17
2022/04/29 07:32:48;;;;;;;3.35;2.40;;;19.80;55.30;;;;;;4962022;28;20054;-16
2022/04/29 07:43:37;;;;;;;2.50;2.30;;;19.80;55.40;;;;;;4942546;28;20051;-18
2022/04/29 07:46:03;;;;;;;2.85;2.47;;;19.90;55.10;;;;;;4976779;28;20602;-19
2022/04/29 07:48:29;;;;;;;3.10;2.22;;;19.90;55.10;;;;;;4978307;28;20042;-19
2022/04/29 07:50:55;;;;;;;2.13;2.03;;;19.90;55.10;;;;;;4968476;28;20119;-18
2022/04/29 07:53:21;;;;;;;2.40;2.20;;;19.90;55.10;;;;;;4964323;28;20078;-18
2022/04/29 07:55:46;;;;;;;3.28;2.03;;;19.90;55.20;;;;;;4962292;28;20058;-19
2022/04/29 07:58:12;;;;;;;2.45;2.17;;;19.90;55.30;;;;;;4964344;28;20133;-17
2022/04/29 08:00:38;;;;;;;2.30;1.98;;;19.90;55.30;;;;;;4957258;28;20077;-19
2022/04/29 08:03:04;;;;;;;2.40;2.20;;;19.90;55.20;;;;;;4962682;28;20129;-19
2022/04/29 08:05:30;;;;;;;5.47;2.30;;;19.90;55.20;;;;;;4961823;28;20057;-19
2022/04/29 08:07:59;;;;;;;3.38;2.65;;;20.00;55.20;;;;;;4963586;28;20046;-18
2022/04/29 08:10:29;;;;;;;2.85;2.30;;;20.00;55.20;;;;;;4962856;28;20046;-18
2022/04/29 08:12:57;;;;;;;3.50;2.45;;;19.90;55.20;;;;;;4963229;28;20055;-18
2022/04/29 08:15:24;;;;;;;2.60;2.30;;;19.90;55.30;;;;;;4961500;28;20042;-19
2022/04/29 08:17:50;;;;;;;2.40;2.20;;;20.00;55.30;;;;;;4962334;28;20085;-18
2022/04/29 08:20:15;;;;;;;2.33;2.10;;;20.00;55.10;;;;;;4963368;28;20129;-18
2022/04/29 08:22:42;;;;;;;3.17;2.00;;;20.00;55.00;;;;;;4961386;28;20058;-18
2022/04/29 08:25:08;;;;;;;3.03;2.30;;;20.00;54.90;;;;;;4962082;28;20051;-21
2022/04/29 08:27:34;;;;;;;3.20;2.28;;;20.00;55.00;;;;;;4963052;28;20113;-19
2022/04/29 08:29:59;;;;;;;2.60;2.40;;;20.00;55.00;;;;;;4963212;28;20059;-18
2022/04/29 08:32:25;;;;;;;2.90;2.63;;;20.00;55.00;;;;;;4962800;28;20047;-19
2022/04/29 08:34:51;;;;;;;3.83;2.22;;;20.10;55.10;;;;;;4959493;28;20058;-18
2022/04/29 08:37:18;;;;;;;2.80;2.60;;;20.20;54.80;;;;;;4963182;28;20138;-18
2022/04/29 08:39:44;;;;;;;3.40;2.40;;;20.20;54.80;;;;;;4961331;28;20050;-19
2022/04/29 08:42:10;;;;;;;2.85;2.42;;;20.30;54.90;;;;;;4960583;28;20061;-19
2022/04/29 08:44:35;;;;;;;2.80;2.60;;;20.30;54.70;;;;;;4961390;28;21331;-19
2022/04/29 08:47:04;;;;;;;2.60;2.40;;;20.30;54.70;;;;;;4961247;28;20059;-19
2022/04/29 08:49:29;;;;;;;2.63;2.35;;;20.30;54.70;;;;;;4963308;28;20077;-19
2022/04/29 08:51:55;;;;;;;3.00;2.72;;;20.20;54.70;;;;;;4960683;28;20058;-19
2022/04/29 08:59:51;;;;;;;2.13;2.03;;;20.40;54.70;;;;;;4975484;28;20519;-19
2022/04/29 09:02:17;;;;;;;2.60;2.40;;;20.60;54.50;;;;;;4976056;28;20049;-18
2022/04/29 09:04:42;;;;;;;3.60;3.30;;;20.60;54.40;;;;;;4976006;28;20500;-18
2022/04/29 09:07:09;;;;;;;4.85;4.13;;;20.50;54.50;;;;;;4974329;28;20679;-18
2022/04/29 09:09:35;;;;;;;4.22;3.63;;;20.50;54.50;;;;;;4975740;28;20110;-19
2022/04/29 09:12:16;;;;;;;4.50;4.10;;;20.50;54.50;;;;;;4972809;28;20067;-18
2022/04/29 09:14:42;;;;;;;4.25;3.58;;;20.50;54.70;;;;;;4974843;28;20431;-18
2022/04/29 09:17:29;;;;;;;5.28;4.78;;;20.50;54.60;;;;;;4975819;28;20550;-19
2022/04/29 09:19:54;;;;;;;4.43;4.03;;;20.50;54.80;;;;;;4973064;28;20145;-18
2022/04/29 09:22:20;;;;;;;7.78;5.97;;;20.60;54.60;;;;;;4976472;28;20077;-18
2022/04/29 09:25:03;;;;;;;6.78;5.47;;;20.60;54.60;;;;;;4962214;28;20114;-19
2022/04/29 09:27:28;;;;;;;9.85;6.82;;;20.70;54.50;;;;;;4970522;28;20386;-19
2022/04/29 09:29:57;;;;;;;8.32;7.03;;;20.70;54.70;;;;;;4958958;28;20074;-18
2022/04/29 09:32:23;;;;;;;7.43;6.60;;;20.70;54.70;;;;;;4974796;28;20579;-18
2022/04/29 09:34:53;;;;;;;9.65;7.57;;;20.60;54.80;;;;;;4975367;28;20535;-19
2022/04/29 09:37:19;;;;;;;8.43;7.07;;;20.60;54.80;;;;;;4970962;28;20249;-19
2022/04/29 09:39:57;;;;;;;11.18;8.05;;;20.70;54.90;;;;;;4973252;28;20046;-18
2022/04/29 09:42:23;;;;;;;9.98;8.98;;;20.70;54.80;;;;;;4959811;28;20047;-18
2022/04/29 09:44:49;;;;;;;8.52;6.40;;;20.70;55.10;;;;;;4963218;28;20051;-19
2022/04/29 09:47:21;;;;;;;9.13;7.55;;;20.80;54.90;;;;;;4975562;28;20045;-19
2022/04/29 09:49:58;;;;;;;5.97;5.45;;;20.80;54.80;;;;;;4958003;28;20058;-19
2022/04/29 09:52:30;;;;;;;7.47;6.53;;;20.80;54.40;;;;;;4967258;28;20077;-18
2022/04/29 09:55:08;;;;;;;6.82;6.22;;;20.90;54.50;;;;;;4965020;28;20085;-19
2022/04/29 09:57:34;;;;;;;8.05;6.43;;;20.90;54.40;;;;;;4975635;28;20066;-18
2022/04/29 10:00:00;;;;;;;8.43;6.65;;;21.00;54.40;;;;;;4956128;28;20051;-18
2022/04/29 10:02:28;;;;;;;7.82;6.15;;;21.00;54.30;;;;;;4956024;28;20183;-18
2022/04/29 10:04:54;;;;;;;5.88;5.15;;;21.00;54.20;;;;;;4956881;28;20097;-19
2022/04/29 10:07:22;;;;;;;6.38;5.72;;;21.00;54.20;;;;;;4957617;28;20071;-19
2022/04/29 10:09:57;;;;;;;6.55;6.03;;;21.00;54.20;;;;;;4969822;28;20042;-18
2022/04/29 10:12:23;;;;;;;6.13;5.60;;;21.00;54.10;;;;;;4971257;28;20039;-18
2022/04/29 10:14:52;;;;;;;5.60;5.00;;;21.10;54.00;;;;;;4957010;28;20102;-19
2022/04/29 10:22:52;;;;;;;4.90;4.50;;;21.20;53.90;;;;;;4975470;28;20050;-19
2022/04/29 10:25:22;;;;;;;4.82;4.18;;;21.10;54.00;;;;;;4968512;28;20050;-19
2022/04/29 10:27:50;;;;;;;4.53;4.18;;;21.10;54.00;;;;;;4974716;28;20043;-19
2022/04/29 10:30:26;;;;;;;4.75;4.40;;;21.10;53.90;;;;;;4976301;28;20054;-19
2022/04/29 10:33:08;;;;;;;4.32;3.92;;;21.20;54.00;;;;;;4973288;28;20039;-18
2022/04/29 10:35:49;;;;;;;3.53;3.33;;;21.20;53.90;;;;;;4976409;28;20137;-18
2022/04/29 10:38:15;;;;;;;3.60;3.30;;;21.10;53.90;;;;;;4972790;28;20475;-19
2022/04/29 10:40:41;;;;;;;4.00;3.70;;;21.20;53.90;;;;;;4960093;28;20050;-19
2022/04/29 10:43:08;;;;;;;4.55;3.78;;;21.20;54.00;;;;;;4961396;28;20071;-19
2022/04/29 10:45:34;;;;;;;3.78;3.53;;;21.20;53.90;;;;;;4956896;28;20066;-19
2022/04/29 10:48:32;;;;;;;4.10;3.80;;;21.20;53.80;;;;;;4964749;28;20039;-19
2022/04/29 10:51:19;;;;;;;3.55;3.28;;;21.20;53.90;;;;;;4972304;28;20082;-19
2022/04/29 10:53:47;;;;;;;3.45;3.20;;;21.20;53.80;;;;;;4965370;28;20035;-19
2022/04/29 10:56:31;;;;;;;4.03;3.72;;;21.30;53.80;;;;;;4976079;28;20061;-19
2022/04/29 10:59:21;;;;;;;3.25;3.05;;;21.30;53.80;;;;;;4975287;28;20031;-18
2022/04/29 11:01:51;;;;;;;3.92;3.63;;;21.30;53.80;;;;;;4968353;28;20101;-19
2022/04/29 11:04:16;;;;;;;3.67;3.38;;;21.30;53.70;;;;;;4974315;28;20134;-18
2022/04/29 11:06:46;;;;;;;4.55;4.25;;;21.30;53.80;;;;;;4965150;28;20067;-19
2022/04/29 11:09:31;;;;;;;4.03;3.67;;;21.30;53.70;;;;;;4963350;28;20179;-19
2022/04/29 11:12:00;;;;;;;3.50;3.30;;;21.30;53.70;;;;;;4962531;28;20039;-19
2022/04/29 11:14:26;;;;;;;4.10;3.80;;;21.30;53.70;;;;;;4960400;28;20036;-19
2022/04/29 11:17:11;;;;;;;3.65;3.35;;;21.30;53.70;;;;;;4958745;28;20182;-18
2022/04/29 11:19:47;;;;;;;3.05;2.83;;;21.30;53.70;;;;;;4963800;28;20049;-18
2022/04/29 11:25:04;;;;;;;3.97;3.38;;;21.30;53.80;;;;;;4959782;28;20075;-18
2022/04/29 11:27:31;;;;;;;3.60;3.33;;;21.30;53.70;;;;;;4960247;28;20051;-18
2022/04/29 11:30:01;;;;;;;3.80;3.50;;;21.40;53.80;;;;;;4959536;28;20047;-18
2022/04/29 11:32:27;;;;;;;3.03;2.83;;;21.30;53.70;;;;;;4975882;28;20043;-18
2022/04/29 11:34:56;;;;;;;3.80;3.60;;;21.30;53.70;;;;;;4966262;28;20039;-18
2022/04/29 11:37:25;;;;;;;4.15;3.78;;;21.40;53.80;;;;;;4979444;28;20049;-18
2022/04/29 11:39:52;;;;;;;4.22;3.92;;;21.40;53.70;;;;;;4965214;28;20039;-18
2022/04/29 11:42:17;;;;;;;3.60;3.40;;;21.40;53.80;;;;;;4958803;28;20047;-18
2022/04/29 11:44:45;;;;;;;3.70;3.40;;;21.40;53.80;;;;;;4961777;28;20047;-19
2022/04/29 11:47:11;;;;;;;3.72;3.42;;;21.40;53.70;;;;;;4960015;28;20519;-19
2022/04/29 11:49:37;;;;;;;3.20;2.90;;;21.40;53.80;;;;;;4960032;28;20534;-18
2022/04/29 11:52:30;;;;;;;3.25;3.05;;;21.30;53.80;;;;;;4966096;28;20484;-18
2022/04/29 11:55:03;;;;;;;3.38;3.17;;;21.40;53.80;;;;;;4977878;28;20118;-18
2022/04/29 11:57:30;;;;;;;3.33;3.03;;;21.40;54.00;;;;;;4979212;28;20109;-18
2022/04/29 11:59:55;;;;;;;3.35;3.15;;;21.40;53.90;;;;;;4973374;28;20043;-18
2022/04/29 12:02:22;;;;;;;3.42;3.17;;;21.40;53.90;;;;;;4968177;28;20058;-18
2022/04/29 12:04:56;;;;;;;2.90;2.70;;;21.40;54.10;;;;;;4619012;28;9999874;-18
2022/04/29 12:07:27;;;;;;;3.42;3.13;;;21.40;54.10;;;;;;4973086;28;20055;-18
2022/04/29 12:09:53;;;;;;;3.60;3.30;;;21.40;53.90;;;;;;4967641;28;20057;-19
2022/04/29 12:12:28;;;;;;;3.38;3.17;;;21.40;54.20;;;;;;4973551;28;20575;-18
2022/04/29 12:15:00;;;;;;;3.10;2.90;;;21.40;54.10;;;;;;4955157;28;20512;-17
2022/04/29 12:17:33;;;;;;;3.38;3.17;;;21.50;54.10;;;;;;4972026;28;20061;-18
2022/04/29 12:19:59;;;;;;;3.45;3.22;;;21.50;54.10;;;;;;4962716;28;20288;-17
2022/04/29 12:22:32;;;;;;;3.20;2.90;;;21.50;54.10;;;;;;4973494;28;20054;-18
2022/04/29 12:25:25;;;;;;;2.97;2.78;;;21.50;54.20;;;;;;4969449;28;20061;-17
2022/04/29 12:28:09;;;;;;;3.20;2.97;;;21.50;54.30;;;;;;4965638;28;20086;-17
2022/04/29 12:36:13;;;;;;;2.50;2.40;;;21.60;54.20;;;;;;4967845;28;20578;-17
2022/04/29 12:38:40;;;;;;;2.85;2.65;;;21.60;54.20;;;;;;4972525;28;20047;-17
2022/04/29 12:41:23;;;;;;;3.22;3.03;;;21.50;54.20;;;;;;4961339;28;20107;-17
2022/04/29 12:43:48;;;;;;;2.90;2.70;;;21.60;54.30;;;;;;4963792;28;20086;-17
2022/04/29 12:46:18;;;;;;;3.10;2.90;;;21.60;54.20;;;;;;4964374;28;20110;-16
2022/04/29 12:48:49;;;;;;;2.80;2.70;;;21.60;54.30;;;;;;4971278;28;20047;-17
2022/04/29 12:51:34;;;;;;;2.72;2.60;;;21.60;54.20;;;;;;4970814;28;20078;-16
2022/04/29 12:54:04;;;;;;;2.90;2.70;;;21.70;54.30;;;;;;4968217;28;20046;-17
2022/04/29 12:56:34;;;;;;;3.03;2.80;;;21.60;54.30;;;;;;4969259;28;20051;-17
2022/04/29 12:59:01;;;;;;;3.80;2.80;;;21.60;54.30;;;;;;4973863;28;20046;-17
2022/04/29 13:01:34;;;;;;;2.85;2.75;;;21.70;54.40;;;;;;4974395;28;20043;-17
2022/04/29 13:04:00;;;;;;;3.00;2.78;;;21.60;54.30;;;;;;4968737;28;20051;-17
2022/04/29 13:06:25;;;;;;;2.72;2.63;;;21.70;54.90;;;;;;4969809;28;20097;-19
2022/04/29 13:08:52;;;;;;;2.75;2.65;;;21.70;54.70;;;;;;4991617;28;20106;-19
2022/04/29 13:11:18;;;;;;;3.22;2.65;;;21.70;54.50;;;;;;4964638;28;20071;-19
2022/04/29 13:13:44;;;;;;;3.05;2.67;;;21.70;54.60;;;;;;4974315;28;20085;-19
2022/04/29 13:16:09;;;;;;;3.00;2.60;;;21.70;54.50;;;;;;4973274;28;20428;-19
2022/04/29 13:18:35;;;;;;;2.50;2.40;;;21.70;54.50;;;;;;4969862;28;20131;-19